Latest Weather Observations for Roma

IDQ60801

Issued at 11:13 pm EST Wednesday 25 May 2022 (issued every 10 minutes, with the page automatically refreshed every 10 minutes)

About weather observations | Map of weather stations | Latest weather observations for QLD | Other Formats
Station Details ID: 043091 Name: ROMA AIRPORT Lat: -26.55 Lon: 148.77 Height: 307.38 m
Data from the previous 72 hours. | See also: Recent months at Roma
Date/Time
EST
Temp
°C
App
Temp
°C
Dew
Point
°C
Rel
Hum
%
Delta-T
°C
Wind Press
QNH
hPa
Press
MSL
hPa
Rain since
9am
mm
Dir  Spd
km/h
Gust
km/h
Spd
kts
Gust
kts
25/11:00pm 15.8 - - - - ENE 4 9 2 5 1018.5 1018.0 0.0
25/10:30pm 16.1 - - - - E 7 9 4 5 1018.6 1018.1 0.0
25/10:00pm 16.7 - - - - E 6 9 3 5 1018.9 1018.4 0.0
25/09:30pm 17.0 - - - - E 9 11 5 6 1018.9 1018.4 0.0
25/09:00pm 16.9 - - - - E 9 13 5 7 1018.7 1018.2 0.0
25/08:30pm 16.3 - - - - E 9 11 5 6 1018.6 1018.1 0.0
25/08:00pm 16.1 - - - - ESE 9 11 5 6 1018.6 1018.1 0.0
25/07:30pm 15.8 - - - - E 11 13 6 7 1018.3 1017.8 0.0
25/07:00pm 16.3 - - - - E 11 13 6 7 1018.3 1017.8 0.0
25/06:30pm 16.9 - - - - ESE 11 13 6 7 1018.2 1017.7 0.0
25/06:00pm 18.0 - - - - E 7 9 4 5 1017.9 1017.4 0.0
25/05:30pm 18.8 - - - - ENE 7 9 4 5 1017.9 1017.4 0.0
25/05:00pm 19.2 - - - - ENE 9 11 5 6 1017.7 1017.2 0.0
25/04:30pm 19.8 - - - - NE 11 15 6 8 1017.5 1016.9 0.0
25/04:00pm 19.9 - - - - ENE 13 17 7 9 1017.3 1016.7 0.0
25/03:30pm 20.2 - - - - E 13 17 7 9 1017.1 1016.5 0.0
25/03:00pm 20.2 - - - - E 17 22 9 12 1017.2 1016.6 0.0
25/02:30pm 20.7 - - - - ENE 15 20 8 11 1017.4 1016.8 0.0
25/02:00pm 20.8 - - - - NE 15 20 8 11 1017.6 1017.1 0.0
25/01:30pm 20.8 - - - - ENE 15 24 8 13 1017.9 1017.4 0.0
25/01:00pm 21.2 - - - - ENE 17 24 9 13 1018.4 1017.9 0.0
25/12:30pm 20.7 - - - - NE 19 26 10 14 1018.8 1018.3 0.0
25/12:00pm 19.6 - - - - NNE 19 22 10 12 1019.2 1018.7 0.0
25/11:30am 19.7 - - - - ENE 15 19 8 10 1019.8 1019.3 0.0
25/11:00am 18.6 - - - - NE 17 20 9 11 1020.7 1020.2 0.0
25/10:30am 18.0 - - - - ENE 13 17 7 9 1021.2 1020.7 0.0
25/10:00am 17.3 - - - - NE 13 22 7 12 1021.5 1021.0 0.0
25/09:30am 15.9 - - - - NNE 7 11 4 6 1021.7 1021.2 0.0
25/09:00am 14.3 - - - - S 6 9 3 5 1021.7 1021.2 0.2
25/08:30am 13.4 - - - - WSW 6 7 3 4 1021.6 1021.1 0.2
25/08:00am 12.9 - - - - CALM 0 7 0 4 1021.2 1020.7 0.2
25/07:30am 12.5 - - - - NNE 6 7 3 4 1021.3 1020.8 0.2
25/07:00am 11.8 - - - - CALM 0 0 0 0 1021.0 1020.5 0.2
25/06:30am 11.3 - - - - CALM 0 0 0 0 1020.9 1020.4 0.2
25/06:00am 10.7 - - - - ESE 2 9 1 5 1020.3 1019.9 0.2
25/05:30am 11.7 - - - - SSE 7 7 4 4 1020.2 1019.7 0.2
25/05:00am 10.7 - - - - SSW 6 7 3 4 1020.1 1019.6 0.2
25/04:30am 11.0 - - - - SW 2 7 1 4 1020.0 1019.5 0.2
25/04:00am 11.9 - - - - W 7 7 4 4 1020.1 1019.6 0.2
25/03:30am 12.7 - - - - CALM 0 0 0 0 1019.9 1019.4 0.2
25/03:00am 13.0 - - - - ESE 6 7 3 4 1019.8 1019.3 0.2
25/02:30am 12.9 - - - - ESE 9 13 5 7 1019.8 1019.3 0.2
25/02:00am 13.6 - - - - ESE 7 9 4 5 1020.4 1020.0 0.2
25/01:30am 14.2 - - - - E 9 13 5 7 1020.8 1020.3 0.2
25/01:00am 14.8 - - - - E 9 13 5 7 1020.9 1020.4 0.2
25/12:30am 15.1 - - - - ESE 13 15 7 8 1020.9 1020.4 0.2
25/12:00am 15.0 - - - - E 9 15 5 8 1021.1 1020.6 0.2
 
Date/Time
EST
Temp
°C
App
Temp
°C
Dew
Point
°C
Rel
Hum
%
Delta-T
°C
Wind Press
QNH
hPa
Press
MSL
hPa
Rain since
9am
mm
Dir  Spd
km/h
Gust
km/h
Spd
kts
Gust
kts
24/11:30pm 15.5 - - - - E 11 19 6 10 1021.0 1020.5 0.2
24/11:00pm 15.8 - - - - E 13 19 7 10 1021.3 1020.8 0.2
24/10:30pm 16.1 - - - - E 9 13 5 7 1021.5 1021.0 0.2
24/10:00pm 15.9 - - - - E 7 11 4 6 1021.5 1021.0 0.2
24/09:30pm 15.7 - - - - ESE 6 7 3 4 1021.4 1020.9 0.2
24/09:00pm 15.3 - - - - ESE 7 7 4 4 1021.3 1020.8 0.2
24/08:30pm 15.3 - - - - ESE 9 13 5 7 1021.2 1020.7 0.2
24/08:00pm 15.9 - - - - SE 7 9 4 5 1020.9 1020.4 0.2
24/07:30pm 16.6 - - - - SE 7 9 4 5 1020.7 1020.2 0.2
24/07:00pm 17.3 - - - - ESE 6 7 3 4 1020.6 1020.1 0.2
24/06:30pm 17.6 - - - - SE 6 7 3 4 1020.3 1019.9 0.2
24/06:00pm 18.0 - - - - ESE 7 9 4 5 1019.9 1019.4 0.2
24/05:30pm 18.1 - - - - SE 9 11 5 6 1019.6 1019.1 0.2
24/05:00pm 19.5 - - - - ESE 11 13 6 7 1019.2 1018.7 0.2
24/04:30pm 20.4 - - - - ESE 15 19 8 10 1019.0 1018.5 0.2
24/04:00pm 21.4 - - - - ESE 19 26 10 14 1018.7 1018.2 0.2
24/03:34pm 21.5 - - - - SE 13 20 7 11 1018.9 1018.4 0.2
24/03:30pm 21.0 - - - - ESE 15 20 8 11 1019.0 1018.5 0.2
24/03:15pm 21.9 - - - - ESE 15 28 8 15 1018.9 1018.4 0.2
24/03:00pm 21.9 - - - - E 13 17 7 9 1018.9 1018.4 0.2
24/02:30pm 21.8 - - - - ESE 15 20 8 11 1019.0 1018.5 0.2
24/02:00pm 21.3 - - - - SE 13 19 7 10 1019.3 1018.8 0.2
24/01:30pm 21.8 - - - - E 13 17 7 9 1019.6 1019.1 0.2
24/01:00pm 20.7 - - - - SE 15 22 8 12 1020.0 1019.5 0.2
24/12:30pm 21.2 - - - - E 13 20 7 11 1020.4 1020.0 0.2
24/12:00pm 20.0 - - - - ESE 15 22 8 12 1021.0 1020.5 0.2
24/11:30am 19.4 - - - - ESE 15 22 8 12 1021.6 1021.1 0.2
24/11:00am 19.8 - - - - SE 11 19 6 10 1022.1 1021.6 0.2
24/10:30am 18.5 - - - - SE 13 17 7 9 1022.5 1022.0 0.0
24/10:00am 17.9 - - - - ESE 13 19 7 10 1022.8 1022.3 0.0
24/09:51am 17.6 - - - - ESE 13 20 7 11 1022.9 1022.4 0.0
24/09:30am 16.5 - - - - ESE 15 20 8 11 1022.8 1022.3 0.0
24/09:00am 15.3 - - - - ESE 15 20 8 11 1022.8 1022.3 0.0
24/08:50am 15.1 - - - - ESE 15 20 8 11 1022.7 1022.2 0.0
24/08:30am 14.6 - - - - ESE 13 17 7 9 1022.6 1022.1 0.0
24/08:00am 14.1 - - - - SE 9 13 5 7 1022.5 1022.0 0.0
24/07:30am 13.0 - - - - SE 7 9 4 5 1022.5 1022.0 0.0
24/07:00am 11.8 - - - - SSE 7 9 4 5 1022.3 1021.8 0.0
24/06:30am 11.8 - - - - SSE 7 9 4 5 1022.2 1021.7 0.0
24/06:14am 11.7 - - - - SSE 6 9 3 5 1022.0 1021.5 0.0
24/06:00am 11.4 - - - - SSE 7 9 4 5 1021.9 1021.4 0.0
24/05:54am 11.3 - - - - SSE 6 7 3 4 1021.9 1021.4 0.0
24/05:30am 12.3 - - - - SSE 7 9 4 5 1021.8 1021.3 0.0
24/05:00am 12.7 - - - - SE 9 13 5 7 1021.5 1021.0 0.0
24/04:50am 13.0 - - - - SE 11 13 6 7 1021.5 1021.0 0.0
24/04:30am 13.4 - - - - SE 15 19 8 10 1021.4 1020.9 0.0
24/04:00am 13.6 - - - - SE 15 19 8 10 1021.0 1020.5 0.0
24/03:53am 13.6 - - - - SE 13 17 7 9 1021.0 1020.5 0.0
24/03:30am 13.5 - - - - SE 9 13 5 7 1021.0 1020.5 0.0
24/03:00am 13.7 - - - - SE 7 11 4 6 1021.2 1020.7 0.0
24/02:30am 14.1 - - - - SSE 9 11 5 6 1021.6 1021.1 0.0
24/02:00am 14.4 - - - - SSE 13 19 7 10 1021.8 1021.3 0.0
24/01:30am 14.4 - - - - S 9 9 5 5 1022.0 1021.5 0.0
24/01:00am 14.2 - - - - SSW 9 11 5 6 1022.3 1021.8 0.0
24/12:30am 14.2 - - - - S 9 9 5 5 1022.4 1021.9 0.0
24/12:00am 13.9 - - - - SSE 7 9 4 5 1022.5 1022.0 0.0
 
Date/Time
EST
Temp
°C
App
Temp
°C
Dew
Point
°C
Rel
Hum
%
Delta-T
°C
Wind Press
QNH
hPa
Press
MSL
hPa
Rain since
9am
mm
Dir  Spd
km/h
Gust
km/h
Spd
kts
Gust
kts
23/11:30pm 14.1 - - - - SSW 7 9 4 5 1022.6 1022.1 0.0
23/11:00pm 14.3 - - - - SE 9 9 5 5 1022.6 1022.1 0.0
23/10:30pm 14.6 - - - - SE 6 7 3 4 1022.6 1022.1 0.0
23/10:00pm 14.3 - - - - SE 7 9 4 5 1022.4 1021.9 0.0
23/09:30pm 14.8 - - - - ESE 7 11 4 6 1022.4 1021.9 0.0
23/09:00pm 15.5 - - - - ESE 11 13 6 7 1022.2 1021.7 0.0
23/08:30pm 16.3 - - - - ESE 11 15 6 8 1022.3 1021.8 0.0
23/08:00pm 16.2 - - - - SE 11 13 6 7 1022.2 1021.7 0.0
23/07:30pm 16.5 - - - - ESE 11 15 6 8 1022.0 1021.5 0.0
23/07:00pm 16.9 - - - - ESE 11 13 6 7 1021.7 1021.2 0.0
23/06:30pm 17.1 - - - - ESE 11 13 6 7 1021.4 1020.9 0.0
23/06:00pm 17.5 - - - - ESE 11 15 6 8 1021.2 1020.7 0.0
23/05:30pm 18.1 - - - - ESE 13 17 7 9 1021.1 1020.6 0.0
23/05:00pm 18.4 - - - - ESE 9 11 5 6 1020.9 1020.4 0.0
23/04:30pm 18.8 - - - - E 11 17 6 9 1020.7 1020.2 0.0
23/04:00pm 19.1 - - - - ESE 11 15 6 8 1020.4 1020.0 0.0
23/03:30pm 19.2 - - - - ESE 15 17 8 9 1020.4 1020.0 0.0
23/03:00pm 19.6 - - - - ESE 9 13 5 7 1020.3 1019.9 0.0
23/02:30pm 19.4 - - - - E 11 15 6 8 1020.4 1020.0 0.0
23/02:00pm 19.3 - - - - E 7 13 4 7 1020.7 1020.2 0.0
23/01:30pm 19.0 - - - - ESE 9 11 5 6 1020.8 1020.3 0.0
23/01:00pm 19.0 - - - - E 11 15 6 8 1021.1 1020.6 0.0
23/12:30pm 18.6 - - - - ESE 11 15 6 8 1021.5 1021.0 0.0
23/12:00pm 18.1 - - - - E 13 17 7 9 1021.9 1021.4 0.0
23/11:30am 18.2 - - - - E 15 20 8 11 1022.3 1021.8 0.0
23/11:00am 18.2 - - - - ENE 19 24 10 13 1022.4 1021.9 0.0
23/10:30am 17.5 - - - - ESE 13 28 7 15 1022.8 1022.3 0.0
23/10:09am 17.5 - - - - ESE 13 19 7 10 1023.0 1022.5 0.0
23/10:00am 17.4 - - - - ESE 13 19 7 10 1023.0 1022.5 0.0
23/09:30am 17.2 - - - - ESE 15 19 8 10 1023.0 1022.5 0.0
23/09:00am 15.7 - - - - ESE 11 15 6 8 1022.9 1022.4 0.4
23/08:30am 15.0 - - - - SE 9 13 5 7 1022.8 1022.3 0.4
23/08:00am 14.5 - - - - E 6 9 3 5 1022.5 1022.0 0.4
23/07:30am 14.2 - - - - E 4 9 2 5 1022.1 1021.6 0.4
23/07:00am 13.8 - - - - ENE 7 9 4 5 1021.7 1021.2 0.4
23/06:30am 14.0 - - - - E 9 13 5 7 1021.5 1021.0 0.4
23/06:00am 14.0 - - - - ESE 9 13 5 7 1021.2 1020.7 0.4
23/05:30am 14.0 - - - - E 13 17 7 9 1020.8 1020.3 0.4
23/05:00am 14.2 - - - - ESE 11 15 6 8 1020.7 1020.2 0.4
23/04:30am 14.2 - - - - E 9 15 5 8 1020.6 1020.1 0.4
23/04:00am 14.2 - - - - ESE 9 11 5 6 1020.6 1020.1 0.4
23/03:30am 14.3 - - - - SSE 9 11 5 6 1020.4 1020.0 0.4
23/03:00am 14.2 - - - - ESE 6 9 3 5 1020.6 1020.1 0.4
23/02:30am 14.1 - - - - ESE 6 9 3 5 1020.4 1020.0 0.4
23/02:00am 14.4 - - - - ESE 9 13 5 7 1020.6 1020.1 0.4
23/01:30am 14.5 - - - - ESE 13 17 7 9 1020.8 1020.3 0.4
23/01:00am 14.6 - - - - E 13 17 7 9 1020.8 1020.3 0.4
23/12:30am 14.9 - - - - ESE 13 19 7 10 1020.7 1020.2 0.4
23/12:21am 14.9 - - - - ESE 15 20 8 11 1020.7 1020.2 0.4
23/12:00am 15.0 - - - - ESE 13 20 7 11 1020.9 1020.4 0.4
 
Date/Time
EST
Temp
°C
App
Temp
°C
Dew
Point
°C
Rel
Hum
%
Delta-T
°C
Wind Press
QNH
hPa
Press
MSL
hPa
Rain since
9am
mm
Dir  Spd
km/h
Gust
km/h
Spd
kts
Gust
kts
22/11:30pm 15.2 - - - - SE 11 15 6 8 1021.1 1020.6 0.0
22/11:18pm 15.3 - - - - SE 11 15 6 8 1021.1 1020.6 0.0

Other formats

Comma delimited format used in spreadsheet applications
http://www.bom.gov.au/fwo/IDQ60801/IDQ60801.94515.axf

JavaScript Object Notation format (JSON) in row-major order
http://www.bom.gov.au/fwo/IDQ60801/IDQ60801.94515.json

Data quality

Most of these data are generated automatically and are frequently updated. Quality checks on data are not normally performed. It is possible for incorrect values to appear. Refer to information at About Latest Weather Observations and please check the disclaimer before using these data.